createdAt,value
2023-01-05T00:04:04.210Z,1.30
2023-01-05T00:09:06.167Z,1.30
2023-01-05T00:11:52.083Z,1.10
2023-01-05T00:14:46.178Z,1.10
2023-01-05T00:17:34.444Z,1.10
2023-01-05T00:20:20.511Z,1.30
2023-01-05T00:22:52.766Z,1.20
2023-01-05T00:25:25.264Z,1.20
2023-01-05T00:27:54.449Z,1.10
2023-01-05T00:30:24.476Z,1.30
2023-01-05T00:32:51.697Z,1.60
2023-01-05T00:35:19.372Z,1.10
2023-01-05T00:40:16.202Z,1.20
2023-01-05T00:45:12.924Z,1.30
2023-01-05T00:47:40.130Z,1.20
2023-01-05T00:50:08.218Z,1.30
2023-01-05T00:52:35.072Z,1.30
2023-01-05T00:55:01.960Z,1.30
2023-01-05T00:57:28.882Z,1.30
2023-01-05T00:59:55.764Z,1.30
2023-01-05T01:04:50.139Z,1.30
2023-01-05T01:12:11.580Z,1.10
2023-01-05T01:14:39.107Z,1.10
2023-01-05T01:17:06.054Z,1.20
2023-01-05T01:22:01.753Z,1.40
2023-01-05T01:24:35.231Z,1.20
2023-01-05T01:27:02.250Z,1.00
2023-01-05T01:29:29.690Z,1.30
2023-01-05T01:31:56.851Z,1.20
2023-01-05T01:34:24.345Z,1.10
2023-01-05T01:36:51.263Z,1.80
2023-01-05T01:41:45.959Z,1.20
2023-01-05T01:44:51.560Z,1.30
2023-01-05T01:47:39.887Z,1.10
2023-01-05T01:50:16.556Z,1.20
2023-01-05T01:52:45.677Z,2.00
2023-01-05T01:57:41.456Z,1.30
2023-01-05T02:00:10.374Z,1.30
2023-01-05T02:02:37.114Z,1.30
2023-01-05T02:05:08.274Z,1.20
2023-01-05T02:07:39.693Z,1.10
2023-01-05T02:10:07.412Z,1.10
2023-01-05T02:12:55.443Z,1.30
2023-01-05T02:15:36.392Z,1.30
2023-01-05T02:18:12.610Z,1.10
2023-01-05T02:28:22.940Z,1.10
2023-01-05T02:31:01.989Z,1.20
2023-01-05T02:33:55.116Z,1.20
2023-01-05T02:36:40.644Z,1.30
2023-01-05T02:39:20.973Z,1.10
2023-01-05T02:41:57.342Z,1.20
2023-01-05T02:44:28.782Z,1.20
2023-01-05T02:47:07.077Z,1.10
2023-01-05T02:49:40.025Z,1.30
2023-01-05T02:52:09.708Z,1.20
2023-01-05T02:54:47.798Z,1.20
2023-01-05T02:57:42.741Z,0.80
2023-01-05T03:00:12.406Z,1.20
2023-01-05T03:02:41.067Z,1.10
2023-01-05T03:05:16.591Z,1.20
2023-01-05T03:07:45.152Z,1.20
2023-01-05T03:10:32.424Z,1.20
2023-01-05T03:13:24.249Z,1.20
2023-01-05T03:15:58.728Z,1.10
2023-01-05T03:18:26.892Z,1.20
2023-01-05T03:20:55.133Z,1.20
2023-01-05T03:23:41.375Z,0.80
2023-01-05T03:26:30.974Z,1.10
2023-01-05T03:29:19.601Z,1.10
2023-01-05T03:32:15.840Z,1.10
2023-01-05T03:35:12.634Z,1.10
2023-01-05T03:37:57.598Z,1.10
2023-01-05T03:40:32.046Z,1.10
2023-01-05T03:43:00.125Z,1.10
2023-01-05T03:45:32.975Z,1.00
2023-01-05T03:57:49.114Z,1.10
2023-01-05T04:00:16.257Z,1.00
2023-01-05T04:07:38.075Z,1.10
2023-01-05T04:10:05.806Z,0.90
2023-01-05T04:12:32.625Z,0.90
2023-01-05T04:17:26.646Z,0.60
2023-01-05T04:19:53.429Z,1.00
2023-01-05T04:22:26.790Z,1.00
2023-01-05T04:29:48.635Z,0.80
2023-01-05T04:32:15.611Z,0.80
2023-01-05T04:34:42.521Z,0.80
2023-01-05T04:37:09.406Z,0.80
2023-01-05T04:42:03.556Z,0.90
2023-01-05T04:44:30.371Z,1.70
2023-01-05T04:46:57.212Z,0.80
2023-01-05T04:49:24.012Z,0.70
2023-01-05T04:54:18.127Z,0.90
2023-01-05T04:56:45.095Z,0.80
2023-01-05T05:04:08.556Z,0.80
2023-01-05T05:11:29.767Z,0.80
2023-01-05T05:16:23.803Z,0.70
2023-01-05T05:21:17.886Z,0.80
2023-01-05T05:31:06.626Z,0.60
2023-01-05T05:33:33.595Z,0.80
2023-01-05T05:36:00.430Z,0.60
2023-01-05T05:40:54.500Z,0.70
2023-01-05T05:45:50.955Z,1.10
2023-01-05T05:48:18.755Z,0.70
2023-01-05T06:03:03.419Z,0.80
2023-01-05T06:12:54.289Z,0.70
2023-01-05T06:15:22.003Z,0.60
2023-01-05T06:17:49.056Z,0.60
2023-01-05T06:20:17.446Z,0.70
2023-01-05T06:22:44.582Z,0.60
2023-01-05T06:30:07.066Z,0.60
2023-01-05T06:32:33.908Z,0.60
2023-01-05T06:35:00.742Z,0.60
2023-01-05T06:39:56.337Z,0.50
2023-01-05T06:42:23.710Z,0.70
2023-01-05T06:44:50.999Z,0.60
2023-01-05T06:52:16.629Z,0.80
2023-01-05T06:59:38.650Z,0.70
2023-01-05T07:14:23.265Z,0.50
2023-01-05T07:19:17.331Z,0.60
2023-01-05T07:24:11.488Z,0.70
2023-01-05T07:34:00.133Z,0.20
2023-01-05T07:36:27.014Z,0.50
2023-01-05T07:38:53.862Z,0.30
2023-01-05T07:43:51.131Z,0.40
2023-01-05T07:51:12.517Z,0.50
2023-01-05T07:56:12.554Z,0.40
2023-01-05T07:58:39.494Z,0.40
2023-01-05T08:01:14.388Z,0.40
2023-01-05T08:06:11.706Z,0.80
2023-01-05T08:08:38.860Z,0.40
2023-01-05T08:11:07.305Z,0.40
2023-01-05T08:13:53.423Z,0.50
2023-01-05T08:16:20.719Z,0.30
2023-01-05T08:21:15.186Z,0.40
2023-01-05T08:26:12.781Z,0.70
2023-01-05T08:31:11.583Z,0.40
2023-01-05T08:36:15.652Z,0.40
2023-01-05T08:38:48.569Z,0.50
2023-01-05T08:41:17.724Z,0.50
2023-01-05T08:43:44.516Z,2.20
2023-01-05T08:48:38.624Z,0.60
2023-01-05T08:53:34.904Z,0.70
2023-01-05T08:56:02.668Z,0.70
2023-01-05T08:58:29.515Z,0.60
2023-01-05T09:03:23.855Z,0.60
2023-01-05T09:05:54.033Z,0.70
2023-01-05T09:08:20.952Z,0.60
2023-01-05T09:10:47.845Z,0.70
2023-01-05T09:15:42.086Z,0.60
2023-01-05T09:18:08.951Z,0.60
2023-01-05T09:20:39.881Z,1.60
2023-01-05T09:23:07.078Z,1.00
2023-01-05T09:25:33.910Z,1.20
2023-01-05T09:28:00.721Z,0.50
2023-01-05T09:40:16.661Z,0.70
2023-01-05T09:42:46.668Z,0.70
2023-01-05T09:45:21.412Z,0.80
2023-01-05T09:47:49.702Z,0.70
2023-01-05T09:50:23.745Z,0.60
2023-01-05T09:52:54.606Z,0.60
2023-01-05T09:55:24.828Z,0.30
2023-01-05T09:58:00.497Z,0.70
2023-01-05T10:00:28.417Z,0.50
2023-01-05T10:03:03.371Z,0.70
2023-01-05T10:05:31.701Z,0.60
2023-01-05T10:08:13.041Z,0.60
2023-01-05T10:11:10.004Z,0.60
2023-01-05T10:13:43.302Z,0.60
2023-01-05T10:16:17.117Z,1.00
2023-01-05T10:18:45.223Z,0.60
2023-01-05T10:21:20.884Z,0.50
2023-01-05T10:24:07.069Z,0.60
2023-01-05T10:27:24.184Z,0.50
2023-01-05T10:29:48.915Z,0.50
2023-01-05T10:32:26.759Z,0.60
2023-01-05T10:34:58.208Z,0.60
2023-01-05T10:38:11.147Z,0.50
2023-01-05T10:41:06.005Z,0.10
2023-01-05T10:43:35.745Z,0.00
2023-01-05T10:46:31.189Z,0.40
2023-01-05T10:51:18.606Z,0.40
2023-01-05T10:53:45.597Z,0.50
2023-01-05T10:56:31.714Z,0.60
2023-01-05T10:59:12.817Z,0.40
2023-01-05T11:01:45.956Z,0.60
2023-01-05T11:04:33.385Z,0.50
2023-01-05T11:07:05.426Z,0.40
2023-01-05T11:09:32.576Z,0.30
2023-01-05T11:12:01.595Z,0.40
2023-01-05T11:14:35.907Z,0.10
2023-01-05T11:17:05.776Z,0.20
2023-01-05T11:19:41.056Z,0.10
2023-01-05T11:22:33.881Z,0.20
2023-01-05T11:25:18.995Z,0.30
2023-01-05T11:30:25.525Z,0.40
2023-01-05T11:32:52.609Z,0.10
2023-01-05T11:35:33.810Z,0.20
2023-01-05T11:38:01.034Z,0.20
2023-01-05T11:40:36.181Z,0.80
2023-01-05T11:43:11.740Z,0.20
2023-01-05T11:45:47.061Z,0.20
2023-01-05T11:48:23.328Z,0.20
2023-01-05T11:50:56.373Z,0.20
2023-01-05T11:53:34.915Z,0.00
2023-01-05T11:56:25.180Z,0.10
2023-01-05T11:58:57.910Z,0.10
2023-01-05T12:01:37.066Z,-0.10
2023-01-05T12:04:18.819Z,0.00
2023-01-05T12:07:01.497Z,0.00
2023-01-05T12:09:36.147Z,-0.20
2023-01-05T12:12:39.500Z,0.00
2023-01-05T12:15:27.406Z,-0.10
2023-01-05T12:18:29.055Z,-0.10
2023-01-05T12:37:55.192Z,-0.10
2023-01-05T12:56:30.181Z,-0.30
2023-01-05T14:36:36.990Z,-1.40
2023-01-05T14:39:13.243Z,-1.40
2023-01-05T14:57:30.987Z,-1.70
2023-01-05T15:00:16.554Z,-1.50
2023-01-05T15:10:42.253Z,-2.10
2023-01-05T15:16:07.615Z,-1.90
2023-01-05T15:46:56.274Z,-1.90
2023-01-05T16:07:47.169Z,-2.20
2023-01-05T18:25:40.016Z,-4.10
2023-01-05T19:20:01.062Z,-4.50
2023-01-05T20:11:45.642Z,-5.00
2023-01-05T20:36:45.560Z,-4.90
2023-01-05T22:43:57.883Z,-5.60
2023-01-05T22:58:48.062Z,-5.80
2023-01-05T23:03:54.926Z,-5.90
